Time;durP1;ratioP1;P1;durP2;ratioP2;P2;SDS_P1;SDS_P2;PMS_P1;PMS_P2;Temp;Humidity;BMP_temperature;BMP_pressure;BME280_temperature;BME280_humidity;BME280_pressure;Samples;Min_cycle;Max_cycle;Signal;HPM_P1;HPM_P2
2022/08/26 00:00:54;;;;;;;18.63;6.07;;;;;;;18.75;100.00;97090.19;5053432;28;20454;-81
2022/08/26 00:03:20;;;;;;;16.77;6.85;;;;;;;18.69;100.00;97082.69;5036029;28;20032;-80
2022/08/26 00:05:46;;;;;;;17.50;7.18;;;;;;;18.70;100.00;97092.50;5037505;28;20484;-81
2022/08/26 00:08:13;;;;;;;12.52;5.45;;;;;;;18.70;100.00;97084.38;5053213;28;20492;-81
2022/08/26 00:10:39;;;;;;;11.07;5.88;;;;;;;18.58;100.00;97087.50;5052959;28;20048;-81
2022/08/26 00:13:05;;;;;;;13.55;5.25;;;;;;;18.54;100.00;97080.69;5036831;28;20037;-81
2022/08/26 00:15:31;;;;;;;18.88;6.50;;;;;;;18.56;100.00;97084.94;5035516;28;20048;-81
2022/08/26 00:17:57;;;;;;;12.60;6.05;;;;;;;18.52;100.00;97075.41;5035710;28;20463;-81
2022/08/26 00:20:26;;;;;;;15.13;6.05;;;;;;;18.60;100.00;97088.19;5052278;28;20420;-80
2022/08/26 00:22:51;;;;;;;9.98;5.75;;;;;;;18.56;100.00;97082.22;5053494;28;20048;-81
2022/08/26 00:25:17;;;;;;;22.05;6.88;;;;;;;18.52;100.00;97091.66;5041519;28;20039;-81
2022/08/26 00:27:44;;;;;;;14.57;5.50;;;;;;;18.47;100.00;97091.25;5040814;28;20057;-81
2022/08/26 00:30:21;;;;;;;19.45;6.78;;;;;;;18.47;100.00;97084.97;5040312;28;20044;-81
2022/08/26 00:32:47;;;;;;;14.27;5.55;;;;;;;18.40;100.00;97082.03;5058049;28;20044;-81
2022/08/26 00:35:13;;;;;;;15.23;6.13;;;;;;;18.27;100.00;97078.88;5040578;28;20040;-81
2022/08/26 00:37:39;;;;;;;15.85;6.32;;;;;;;18.19;100.00;97070.66;5057797;28;20104;-81
2022/08/26 00:40:12;;;;;;;15.05;5.65;;;;;;;18.26;100.00;97077.16;5057582;28;20033;-81
2022/08/26 00:42:38;;;;;;;11.93;5.28;;;;;;;18.22;100.00;97078.47;5039150;28;20401;-79
2022/08/26 00:45:04;;;;;;;18.67;5.47;;;;;;;18.27;100.00;97076.16;5057766;28;20040;-80
2022/08/26 00:47:35;;;;;;;28.45;5.60;;;;;;;18.15;100.00;97082.81;5038620;28;20041;-81
2022/08/26 00:50:04;;;;;;;13.43;5.70;;;;;;;18.13;100.00;97088.38;5056161;28;20029;-81
2022/08/26 00:52:30;;;;;;;13.13;5.13;;;;;;;18.06;100.00;97098.09;5055828;28;20075;-81
2022/08/26 00:55:03;;;;;;;18.52;5.30;;;;;;;18.03;100.00;97097.53;5056216;28;20025;-81
2022/08/26 00:57:30;;;;;;;21.55;6.03;;;;;;;18.04;100.00;97093.84;5056592;28;20519;-81
2022/08/26 00:59:58;;;;;;;22.05;5.75;;;;;;;17.98;100.00;97094.44;5033887;28;20033;-80
2022/08/26 01:02:23;;;;;;;13.85;5.60;;;;;;;17.98;100.00;97089.88;5039848;28;20067;-80
2022/08/26 01:04:52;;;;;;;19.92;5.68;;;;;;;18.03;100.00;97094.84;5038308;28;20033;-81
2022/08/26 01:07:18;;;;;;;19.02;6.00;;;;;;;17.96;100.00;97107.28;5055642;28;20029;-81
2022/08/26 01:09:45;;;;;;;14.82;5.75;;;;;;;17.96;100.00;97082.94;5038403;28;20051;-80
2022/08/26 01:12:11;;;;;;;24.77;5.85;;;;;;;17.88;100.00;97081.81;5038889;28;20039;-80
2022/08/26 01:14:39;;;;;;;17.23;5.47;;;;;;;17.77;100.00;97081.19;5038586;28;20037;-80
2022/08/26 01:17:06;;;;;;;17.02;5.78;;;;;;;17.76;100.00;97091.16;5055574;28;20025;-80
2022/08/26 01:19:45;;;;;;;24.25;6.47;;;;;;;17.77;100.00;97087.47;5038369;28;20488;-79
2022/08/26 01:22:20;;;;;;;20.17;6.53;;;;;;;17.78;100.00;97105.38;5054467;28;20091;-80
2022/08/26 01:24:47;;;;;;;18.17;5.97;;;;;;;17.71;100.00;97098.88;5053984;28;20032;-81
2022/08/26 01:27:15;;;;;;;20.33;6.10;;;;;;;17.69;100.00;97106.28;5036898;28;20527;-81
2022/08/26 01:29:44;;;;;;;14.93;6.00;;;;;;;17.58;100.00;97092.97;5055654;28;20037;-80
2022/08/26 01:32:11;;;;;;;13.80;5.05;;;;;;;17.58;100.00;97094.81;5039918;28;20110;-82
2022/08/26 01:34:38;;;;;;;14.55;5.60;;;;;;;17.58;100.00;97092.97;5036959;28;20029;-82
2022/08/26 01:37:11;;;;;;;19.95;6.13;;;;;;;17.57;100.00;97102.06;5038935;28;20029;-81
2022/08/26 01:39:38;;;;;;;21.10;6.45;;;;;;;17.61;100.00;97102.63;5055785;28;20400;-81
2022/08/26 01:42:07;;;;;;;17.58;5.75;;;;;;;17.58;100.00;97106.47;5056204;28;20495;-81
2022/08/26 01:44:44;;;;;;;20.50;6.80;;;;;;;17.60;100.00;97107.19;5038278;28;20024;-82
2022/08/26 01:47:11;;;;;;;29.83;6.38;;;;;;;17.57;100.00;97112.88;5044683;28;20067;-81
2022/08/26 01:49:37;;;;;;;16.90;5.70;;;;;;;17.54;100.00;97091.50;5037359;28;20025;-81
2022/08/26 01:52:04;;;;;;;23.77;5.90;;;;;;;17.51;100.00;97096.34;5036400;28;20082;-81
2022/08/26 01:54:30;;;;;;;18.25;5.68;;;;;;;17.43;100.00;97099.81;5036495;28;20481;-79
2022/08/26 01:56:55;;;;;;;9.88;5.35;;;;;;;17.41;100.00;97093.69;5052447;28;20040;-80
2022/08/26 01:59:22;;;;;;;15.75;4.90;;;;;;;17.55;100.00;97098.66;5053335;28;20086;-81
2022/08/26 02:01:53;;;;;;;19.42;6.05;;;;;;;17.50;100.00;97090.13;5039028;28;20028;-81
2022/08/26 02:04:19;;;;;;;13.40;5.78;;;;;;;17.61;100.00;97100.78;5056008;28;20496;-81
2022/08/26 02:06:45;;;;;;;18.67;5.80;;;;;;;17.60;100.00;97096.34;5056702;28;20021;-81
2022/08/26 02:09:12;;;;;;;17.20;5.75;;;;;;;17.53;100.00;97094.38;5055447;28;20071;-81
2022/08/26 02:11:37;;;;;;;16.58;5.93;;;;;;;17.60;100.00;97093.66;5054362;28;20020;-81
2022/08/26 02:14:09;;;;;;;15.70;5.20;;;;;;;17.65;100.00;97094.06;5054144;28;20025;-81
2022/08/26 02:16:38;;;;;;;12.13;5.07;;;;;;;17.54;100.00;97086.09;5053830;28;20108;-80
2022/08/26 02:19:04;;;;;;;14.25;5.43;;;;;;;17.53;100.00;97097.94;5054287;28;20096;-80
2022/08/26 02:21:31;;;;;;;18.48;5.20;;;;;;;17.56;100.00;97099.53;5036993;28;20021;-81
2022/08/26 02:24:10;;;;;;;18.85;5.85;;;;;;;17.52;100.00;97085.41;5036688;28;20025;-81
2022/08/26 02:26:35;;;;;;;16.75;5.18;;;;;;;17.58;100.00;97092.97;5037131;28;20025;-81
2022/08/26 02:29:18;;;;;;;18.98;5.25;;;;;;;17.49;100.00;97077.59;5055308;28;20556;-82
2022/08/26 02:31:44;;;;;;;13.45;5.28;;;;;;;17.55;100.00;97087.00;5037749;28;20028;-82
2022/08/26 02:34:13;;;;;;;18.02;5.65;;;;;;;17.51;100.00;97097.22;5054222;28;20071;-81
2022/08/26 02:36:39;;;;;;;20.92;6.43;;;;;;;17.45;100.00;97096.94;5037432;28;20067;-80
2022/08/26 02:39:06;;;;;;;29.30;6.88;;;;;;;17.47;100.00;97105.78;5054895;28;20476;-80
2022/08/26 02:41:32;;;;;;;23.70;6.22;;;;;;;17.49;100.00;97098.38;5038103;28;20492;-79
2022/08/26 02:43:58;;;;;;;19.35;5.70;;;;;;;17.46;100.00;97085.16;5037795;28;20443;-80
2022/08/26 02:46:23;;;;;;;20.27;6.13;;;;;;;17.44;100.00;97089.88;5037237;28;20067;-79
2022/08/26 02:48:49;;;;;;;19.38;6.22;;;;;;;17.47;100.00;97078.75;5054602;28;20033;-80
2022/08/26 02:51:15;;;;;;;28.90;6.65;;;;;;;17.48;100.00;97094.81;5055340;28;20499;-81
2022/08/26 02:53:41;;;;;;;15.68;6.18;;;;;;;17.42;100.00;97089.13;5054041;28;20035;-80
2022/08/26 02:56:07;;;;;;;20.38;6.82;;;;;;;17.41;100.00;97095.56;5035752;28;20040;-74
2022/08/26 02:58:33;;;;;;;22.17;7.18;;;;;;;17.41;100.00;97103.69;5033196;28;20040;-75
2022/08/26 03:00:59;;;;;;;30.77;8.65;;;;;;;17.33;100.00;97097.16;5050036;28;20033;-75
2022/08/26 03:03:25;;;;;;;20.33;6.45;;;;;;;17.31;100.00;97090.19;5033312;28;20154;-74
2022/08/26 03:05:52;;;;;;;16.70;5.75;;;;;;;17.22;100.00;97089.22;5033114;28;20033;-75
2022/08/26 03:08:18;;;;;;;16.40;6.00;;;;;;;17.17;100.00;97093.34;5049851;28;20021;-75
2022/08/26 03:10:46;;;;;;;27.40;11.00;;;;;;;17.06;100.00;97093.53;5050118;28;20182;-74
2022/08/26 03:13:12;;;;;;;16.73;6.53;;;;;;;16.95;100.00;97109.94;5033372;28;20029;-75
2022/08/26 03:15:38;;;;;;;20.98;6.38;;;;;;;16.89;100.00;97105.09;5033191;28;20029;-75
2022/08/26 03:18:04;;;;;;;15.15;6.00;;;;;;;16.85;100.00;97095.56;5033078;28;20051;-75
2022/08/26 03:20:30;;;;;;;19.27;6.30;;;;;;;16.76;100.00;97098.13;5050065;28;20078;-75
2022/08/26 03:22:55;;;;;;;16.80;5.60;;;;;;;16.83;100.00;97116.50;5032907;28;20083;-76
2022/08/26 03:25:21;;;;;;;14.07;5.43;;;;;;;16.69;100.00;97112.38;5033071;28;20028;-75
2022/08/26 03:27:47;;;;;;;18.42;6.85;;;;;;;16.63;100.00;97111.09;5049743;28;20020;-75
2022/08/26 03:32:58;;;;;;;15.77;6.30;;;;;;;16.72;100.00;97107.53;5049477;28;20106;-76
2022/08/26 03:35:24;;;;;;;16.17;6.10;;;;;;;16.78;100.00;97112.34;5032973;28;20488;-76
2022/08/26 03:37:51;;;;;;;17.15;6.03;;;;;;;16.76;100.00;97117.03;5049962;28;20422;-75
2022/08/26 03:40:17;;;;;;;15.95;6.13;;;;;;;16.72;100.00;97112.94;5049374;28;20036;-76
2022/08/26 03:42:43;;;;;;;12.07;5.53;;;;;;;16.70;100.00;97123.00;5032812;28;20024;-76
2022/08/26 03:45:10;;;;;;;16.63;6.72;;;;;;;16.69;100.00;97124.03;5032719;28;20488;-74
2022/08/26 03:47:37;;;;;;;16.73;5.72;;;;;;;16.68;100.00;97124.16;5049530;28;20135;-75
2022/08/26 03:50:04;;;;;;;21.05;6.25;;;;;;;16.74;100.00;97121.75;5032611;28;20112;-76
2022/08/26 03:52:30;;;;;;;18.67;6.20;;;;;;;16.83;100.00;97127.28;5032718;28;20029;-74
2022/08/26 03:54:55;;;;;;;14.85;7.25;;;;;;;16.87;100.00;97117.88;5032680;28;20033;-75
2022/08/26 03:57:21;;;;;;;14.13;6.88;;;;;;;16.95;100.00;97126.13;5032359;28;20033;-75
2022/08/26 03:59:46;;;;;;;16.60;6.18;;;;;;;17.01;100.00;97125.56;5036563;28;20033;-75
2022/08/26 04:02:12;;;;;;;13.98;6.53;;;;;;;16.99;100.00;97130.22;5036439;28;20029;-74
2022/08/26 04:04:38;;;;;;;19.10;6.15;;;;;;;17.00;100.00;97118.44;5036746;28;20108;-75
2022/08/26 04:07:04;;;;;;;21.63;6.50;;;;;;;17.09;100.00;97117.56;5053404;28;20033;-75
2022/08/26 04:09:29;;;;;;;18.52;5.70;;;;;;;17.25;100.00;97128.63;5036650;28;20052;-75
2022/08/26 04:11:57;;;;;;;19.42;5.38;;;;;;;17.23;100.00;97108.97;5036460;28;20456;-74
2022/08/26 04:14:24;;;;;;;18.30;6.47;;;;;;;17.31;100.00;97117.22;5036558;28;20037;-73
2022/08/26 04:16:51;;;;;;;16.73;6.47;;;;;;;17.39;100.00;97120.03;5053331;28;20120;-74
2022/08/26 04:19:17;;;;;;;19.10;5.40;;;;;;;17.50;100.00;97119.88;5036198;28;20057;-75
2022/08/26 04:21:44;;;;;;;20.10;7.20;;;;;;;17.56;100.00;97119.31;5036287;28;20021;-76
2022/08/26 04:24:11;;;;;;;30.02;9.30;;;;;;;17.73;100.00;97125.78;5036257;28;20063;-76
2022/08/26 04:26:37;;;;;;;16.55;5.72;;;;;;;17.85;100.00;97114.59;5036388;28;20040;-75
2022/08/26 04:29:10;;;;;;;19.05;6.50;;;;;;;18.04;100.00;97123.63;5036262;28;20021;-75
2022/08/26 04:31:36;;;;;;;18.65;5.35;;;;;;;18.20;100.00;97121.09;5035548;28;20036;-75
2022/08/26 04:34:02;;;;;;;21.35;7.00;;;;;;;18.25;100.00;97116.06;5052695;28;20040;-75
2022/08/26 04:36:27;;;;;;;18.20;6.30;;;;;;;18.38;100.00;97109.28;5035632;28;20060;-75
2022/08/26 04:38:53;;;;;;;15.88;7.00;;;;;;;18.54;100.00;97116.75;5035876;28;20523;-76
2022/08/26 04:41:20;;;;;;;23.10;6.90;;;;;;;18.72;100.00;97123.00;5035554;28;20040;-76
2022/08/26 04:43:47;;;;;;;22.25;6.63;;;;;;;18.72;100.00;97111.31;5035788;28;20078;-75
2022/08/26 04:46:17;;;;;;;20.58;8.32;;;;;;;18.91;100.00;97122.00;5035762;28;20162;-76
2022/08/26 04:48:42;;;;;;;16.05;6.97;;;;;;;18.90;100.00;97115.72;5052521;28;20021;-75
2022/08/26 04:51:09;;;;;;;22.90;7.40;;;;;;;18.97;100.00;97104.25;5036002;28;20098;-76
2022/08/26 04:53:34;;;;;;;13.05;6.40;;;;;;;18.97;100.00;97104.25;5027681;28;20032;-77
2022/08/26 04:56:00;;;;;;;16.92;7.07;;;;;;;18.87;100.00;97093.50;5053748;28;20021;-76
2022/08/26 04:58:26;;;;;;;32.42;13.35;;;;;;;19.14;100.00;97112.34;5035482;28;20025;-76
2022/08/26 05:00:54;;;;;;;18.52;7.65;;;;;;;19.36;100.00;97111.81;5052223;28;20033;-76
2022/08/26 05:03:20;;;;;;;17.58;6.82;;;;;;;19.33;100.00;97100.44;5033925;28;20021;-76
2022/08/26 05:05:48;;;;;;;16.50;5.88;;;;;;;19.48;100.00;97098.84;5033053;28;20090;-76
2022/08/26 05:08:15;;;;;;;14.90;5.93;;;;;;;19.68;100.00;97104.91;5049068;28;20057;-78
2022/08/26 05:10:43;;;;;;;16.10;5.80;;;;;;;19.73;100.00;97092.53;5032724;28;20124;-75
2022/08/26 05:13:09;;;;;;;12.07;6.50;;;;;;;19.79;100.00;97099.19;5032867;28;20041;-76
2022/08/26 05:15:35;;;;;;;25.33;6.03;;;;;;;19.86;100.00;97101.09;5049031;28;20041;-76
2022/08/26 05:18:06;;;;;;;15.70;5.72;;;;;;;19.92;100.00;97086.84;5032733;28;20045;-76
2022/08/26 05:20:32;;;;;;;14.77;5.75;;;;;;;19.97;100.00;97095.34;5032342;28;20036;-76
2022/08/26 05:23:01;;;;;;;47.50;21.15;;;;;;;20.20;100.00;97082.03;5032756;28;20765;-76
2022/08/26 05:25:27;;;;;;;21.27;7.45;;;;;;;20.23;100.00;97088.97;5032552;28;20071;-76
2022/08/26 05:27:53;;;;;;;14.85;5.80;;;;;;;20.21;100.00;97086.41;5032423;28;20079;-75
2022/08/26 05:30:18;;;;;;;13.85;5.63;;;;;;;20.10;100.00;97077.72;5032578;28;20123;-76
2022/08/26 05:32:47;;;;;;;16.98;5.53;;;;;;;20.44;100.00;97089.41;5024103;28;20052;-75
2022/08/26 05:35:13;;;;;;;18.55;6.47;;;;;;;20.79;100.00;97078.22;5032568;28;20043;-75
2022/08/26 05:37:39;;;;;;;18.52;8.63;;;;;;;21.64;100.00;97095.81;5032403;28;20436;-75
2022/08/26 05:40:05;;;;;;;20.73;7.72;;;;;;;22.67;100.00;97091.97;5032059;28;20036;-76
2022/08/26 05:42:30;;;;;;;24.20;7.20;;;;;;;24.14;89.68;97096.69;5032051;28;20033;-75
2022/08/26 05:44:56;;;;;;;23.35;7.30;;;;;;;25.09;83.09;97086.41;5048927;28;20477;-75
2022/08/26 05:47:23;;;;;;;21.35;7.65;;;;;;;26.30;77.05;97092.31;5032271;28;20032;-76
2022/08/26 05:49:48;;;;;;;16.75;7.75;;;;;;;27.22;70.76;97076.13;5031793;28;20460;-77
2022/08/26 05:52:14;;;;;;;17.60;10.70;;;;;;;27.86;66.81;97075.44;5048548;28;20037;-78
2022/08/26 05:54:40;;;;;;;31.05;15.95;;;;;;;28.65;63.07;97064.19;5031933;28;20127;-77
2022/08/26 05:57:05;;;;;;;36.80;16.48;;;;;;;29.26;60.13;97053.41;5048737;28;20752;-74
2022/08/26 05:59:31;;;;;;;68.00;38.20;;;;;;;29.60;59.32;97058.41;5031929;28;20669;-75
2022/08/26 06:01:56;;;;;;;33.28;13.43;;;;;;;29.75;57.59;97058.09;5048388;28;20068;-75
2022/08/26 06:04:24;;;;;;;43.63;17.60;;;;;;;30.14;55.79;97049.41;5048236;28;20041;-75
2022/08/26 06:06:50;;;;;;;26.25;10.65;;;;;;;30.27;55.11;97060.25;5048153;28;20118;-76
2022/08/26 06:09:16;;;;;;;26.35;10.40;;;;;;;29.83;55.63;97057.81;5048685;28;20484;-75
2022/08/26 06:11:42;;;;;;;22.52;9.43;;;;;;;30.20;54.96;97048.47;5031472;28;20043;-77
2022/08/26 06:14:08;;;;;;;15.27;7.43;;;;;;;30.29;54.37;97041.56;5031567;28;20037;-76
2022/08/26 06:16:37;;;;;;;21.70;9.63;;;;;;;29.48;55.94;97043.69;5047863;28;20047;-76
2022/08/26 06:19:04;;;;;;;33.35;16.92;;;;;;;28.92;59.20;97044.53;5031496;28;20028;-75
2022/08/26 06:21:35;;;;;;;17.45;7.10;;;;;;;29.27;56.93;97049.59;5030877;28;20029;-76
2022/08/26 06:26:55;;;;;;;17.10;6.78;;;;;;;30.69;53.65;97054.88;5048706;28;20035;-75
2022/08/26 06:29:24;;;;;;;20.90;9.95;;;;;;;31.48;50.86;97046.22;5025643;28;20041;-75
2022/08/26 06:31:50;;;;;;;17.05;8.68;;;;;;;31.22;51.88;97036.47;5031202;28;20111;-75
2022/08/26 06:34:16;;;;;;;21.10;6.75;;;;;;;32.20;49.37;97045.81;5047525;28;20115;-76
2022/08/26 06:36:43;;;;;;;14.65;5.88;;;;;;;33.20;46.81;97037.84;5031203;28;20115;-76
2022/08/26 06:39:11;;;;;;;17.80;5.32;;;;;;;34.00;44.84;97047.78;5030966;28;20032;-75
2022/08/26 06:41:37;;;;;;;14.02;5.55;;;;;;;34.77;43.40;97040.25;5031120;28;20028;-75
2022/08/26 06:44:05;;;;;;;24.20;5.55;;;;;;;34.79;42.92;97050.00;5030494;28;20618;-76
2022/08/26 06:46:31;;;;;;;22.50;6.35;;;;;;;35.70;41.63;97047.31;5030940;28;20090;-76
2022/08/26 06:48:57;;;;;;;10.88;5.70;;;;;;;35.49;41.32;97032.38;5030630;28;20556;-75
2022/08/26 06:51:32;;;;;;;28.52;6.93;;;;;;;36.50;39.94;97030.31;5047228;28;20107;-75
2022/08/26 06:53:59;;;;;;;29.15;15.23;;;;;;;35.89;40.37;97034.66;5030587;28;20029;-75
2022/08/26 06:56:46;;;;;;;12.35;6.13;;;;;;;34.24;42.85;97039.00;5030739;28;20029;-75
2022/08/26 06:59:11;;;;;;;19.58;6.03;;;;;;;34.75;42.73;97036.88;5047979;28;20705;-76
2022/08/26 07:01:43;;;;;;;14.77;6.47;;;;;;;33.96;43.86;97043.84;5030694;28;20039;-75
2022/08/26 07:04:08;;;;;;;14.80;5.78;;;;;;;33.60;45.10;97048.00;5047032;28;20024;-75
2022/08/26 07:06:37;;;;;;;23.48;5.70;;;;;;;33.64;44.66;97036.13;5047086;28;20040;-75
2022/08/26 07:09:04;;;;;;;19.77;5.72;;;;;;;33.95;44.34;97047.72;5029533;28;20092;-75
2022/08/26 07:11:31;;;;;;;21.38;6.18;;;;;;;33.63;45.41;97051.09;5047250;28;20024;-76
2022/08/26 07:13:57;;;;;;;18.98;5.32;;;;;;;34.17;43.82;97043.06;5046991;28;20033;-76
2022/08/26 07:16:23;;;;;;;17.75;5.63;;;;;;;34.01;44.26;97041.13;5030164;28;20029;-76
2022/08/26 07:18:51;;;;;;;17.23;5.95;;;;;;;35.09;42.30;97032.84;5030522;28;20044;-75
2022/08/26 07:21:17;;;;;;;11.10;5.60;;;;;;;35.97;40.82;97033.31;5027951;28;20028;-75
2022/08/26 07:23:44;;;;;;;15.45;4.28;;;;;;;35.41;39.75;97020.91;5046710;28;20032;-76
2022/08/26 07:26:22;;;;;;;11.45;4.93;;;;;;;35.17;39.98;97023.16;5030477;28;20029;-76
2022/08/26 07:28:49;;;;;;;9.93;4.45;;;;;;;35.94;39.33;97020.75;5030169;28;20417;-76
2022/08/26 07:31:16;;;;;;;23.50;4.93;;;;;;;36.76;38.28;97022.91;5046705;28;20031;-75
2022/08/26 07:33:42;;;;;;;25.65;5.05;;;;;;;36.61;37.66;97012.53;5029497;28;20029;-76
2022/08/26 07:36:09;;;;;;;26.25;5.30;;;;;;;36.75;38.33;97010.06;5029954;28;20040;-77
2022/08/26 07:38:35;;;;;;;20.02;5.70;;;;;;;37.00;37.12;97018.53;5030147;28;20020;-76
2022/08/26 07:41:01;;;;;;;16.65;5.13;;;;;;;35.82;39.02;97015.41;5030184;28;20111;-76
2022/08/26 07:43:28;;;;;;;30.85;5.25;;;;;;;34.73;40.44;97006.56;5030217;28;20520;-76
2022/08/26 07:45:54;;;;;;;21.55;6.20;;;;;;;33.90;42.05;97020.69;5030127;28;20028;-76
2022/08/26 07:48:19;;;;;;;17.98;4.53;;;;;;;32.87;43.38;97014.75;5046590;28;20017;-77
2022/08/26 07:50:46;;;;;;;18.80;4.00;;;;;;;32.36;44.33;97010.13;5030305;28;20029;-76
2022/08/26 07:53:12;;;;;;;17.13;4.60;;;;;;;31.73;45.03;97021.13;5031357;28;20032;-81
2022/08/26 07:55:38;;;;;;;16.70;5.60;;;;;;;30.96;47.19;97020.28;5046922;28;20017;-75
2022/08/26 07:58:04;;;;;;;16.17;5.50;;;;;;;31.35;46.25;97033.47;5029941;28;20095;-76
2022/08/26 08:00:31;;;;;;;17.27;4.28;;;;;;;32.41;44.65;97022.13;5030341;28;20037;-76
2022/08/26 08:03:01;;;;;;;16.20;5.03;;;;;;;33.68;42.41;97026.22;5030101;28;20039;-76
2022/08/26 08:05:31;;;;;;;31.13;4.85;;;;;;;34.60;40.36;97018.09;5029713;28;20040;-76
2022/08/26 08:07:57;;;;;;;20.52;4.80;;;;;;;34.71;40.03;97003.22;5046339;28;20029;-76
2022/08/26 08:10:24;;;;;;;15.85;5.25;;;;;;;35.92;37.58;97005.44;5029581;28;20049;-77
2022/08/26 08:12:51;;;;;;;11.20;4.32;;;;;;;36.20;36.73;96993.94;5046349;28;20025;-76
2022/08/26 08:15:19;;;;;;;18.52;4.07;;;;;;;37.43;35.93;96989.28;5029522;28;20032;-76
2022/08/26 08:17:45;;;;;;;14.15;4.93;;;;;;;38.08;34.45;96995.97;5029657;28;20465;-76
2022/08/26 08:20:12;;;;;;;15.48;4.35;;;;;;;36.04;36.35;96984.63;5046495;28;20035;-76
2022/08/26 08:22:38;;;;;;;8.70;3.40;;;;;;;35.16;37.12;96977.81;5029797;28;20131;-76
2022/08/26 08:25:04;;;;;;;11.57;4.25;;;;;;;34.67;38.24;96985.38;5029832;28;20507;-76
2022/08/26 08:27:32;;;;;;;10.93;4.20;;;;;;;35.61;36.72;96984.91;5029507;28;20043;-76
2022/08/26 08:29:59;;;;;;;12.27;3.58;;;;;;;36.19;35.48;96981.09;5029609;28;20040;-76
2022/08/26 08:32:25;;;;;;;12.57;4.30;;;;;;;37.88;32.90;96994.84;5045945;28;20033;-76
2022/08/26 08:34:51;;;;;;;13.45;4.13;;;;;;;38.75;31.53;96964.66;5046157;28;20047;-76
2022/08/26 08:37:17;;;;;;;11.23;4.20;;;;;;;40.85;29.54;96979.81;5046257;28;20033;-76
2022/08/26 08:39:42;;;;;;;21.55;4.25;;;;;;;40.52;28.92;96961.16;5029771;28;20032;-77
2022/08/26 08:42:30;;;;;;;9.95;3.65;;;;;;;38.42;31.45;96963.44;5046374;28;20060;-76
2022/08/26 08:44:58;;;;;;;15.40;4.38;;;;;;;35.50;34.95;96950.53;5047983;28;20033;-76
2022/08/26 08:47:53;;;;;;;21.00;4.20;;;;;;;34.47;36.31;96962.88;5049962;28;20029;-76
2022/08/26 08:50:28;;;;;;;12.88;3.58;;;;;;;34.01;37.30;96958.69;5044528;28;20033;-76
2022/08/26 08:53:16;;;;;;;10.45;3.70;;;;;;;33.46;38.24;96960.63;5032727;28;20025;-76
2022/08/26 08:56:01;;;;;;;14.90;4.18;;;;;;;33.29;38.63;96966.16;5033101;28;20040;-76
2022/08/26 08:58:56;;;;;;;14.55;4.88;;;;;;;34.39;37.99;96970.84;5033279;28;20032;-77
2022/08/26 09:01:39;;;;;;;17.20;5.43;;;;;;;35.21;36.72;96969.53;5049480;28;20035;-77
2022/08/26 09:04:13;;;;;;;14.95;4.43;;;;;;;34.76;37.59;96956.00;5049471;28;20036;-76
2022/08/26 09:06:39;;;;;;;29.35;5.32;;;;;;;34.69;37.50;96949.84;5051643;28;20071;-76
2022/08/26 09:09:06;;;;;;;10.27;4.07;;;;;;;33.46;38.32;96950.38;5034151;28;20578;-76
2022/08/26 09:11:34;;;;;;;14.68;3.85;;;;;;;35.23;35.53;96961.75;5035717;28;20033;-76
2022/08/26 09:13:59;;;;;;;12.63;4.53;;;;;;;36.84;34.54;96964.63;5035013;28;20091;-78
2022/08/26 09:16:35;;;;;;;11.90;4.28;;;;;;;36.54;34.14;96956.19;5035763;28;20029;-77
2022/08/26 09:19:30;;;;;;;9.25;4.28;;;;;;;37.26;32.85;96946.84;5053022;28;20169;-78
2022/08/26 09:21:57;;;;;;;9.40;3.78;;;;;;;38.58;30.96;96950.22;5051789;28;20404;-78
2022/08/26 09:24:23;;;;;;;11.52;4.72;;;;;;;39.95;29.91;96943.28;5035104;28;20063;-76
2022/08/26 09:26:51;;;;;;;7.47;3.60;;;;;;;41.32;27.56;96941.47;5035282;28;20082;-77
2022/08/26 09:29:20;;;;;;;12.80;4.50;;;;;;;38.53;30.07;96928.69;5051617;28;20064;-76
2022/08/26 09:31:46;;;;;;;9.50;4.13;;;;;;;37.37;30.85;96915.88;5051502;28;20045;-76
2022/08/26 09:34:22;;;;;;;16.75;4.10;;;;;;;39.04;29.36;96924.47;5052573;28;20028;-76
2022/08/26 09:36:54;;;;;;;11.45;4.32;;;;;;;39.14;29.76;96917.13;5051789;28;20043;-76
2022/08/26 09:39:25;;;;;;;;;;;;;;;39.88;28.10;96911.97;5035095;28;20024;-76
2022/08/26 09:42:01;;;;;;;;;;;;;;;40.96;27.13;96896.28;5051849;28;19917;-77
2022/08/26 09:44:26;;;;;;;12.43;3.80;;;;;;;41.32;26.89;96904.94;5043481;28;19912;-76
2022/08/26 09:46:55;;;;;;;7.00;4.13;;;;;;;42.18;26.03;96895.78;5034976;28;20140;-76
2022/08/26 09:49:26;;;;;;;12.00;4.63;;;;;;;38.65;29.00;96870.44;5051248;28;20527;-77
2022/08/26 09:52:22;;;;;;;9.90;4.20;;;;;;;39.31;28.00;96883.97;5052517;28;20409;-76
2022/08/26 09:55:13;;;;;;;8.95;4.53;;;;;;;38.32;30.24;96883.22;5034594;28;20424;-76
2022/08/26 09:57:53;;;;;;;11.25;3.88;;;;;;;38.40;29.64;96876.19;5034169;28;20174;-76
2022/08/26 10:00:38;;;;;;;10.03;4.17;;;;;;;36.69;31.07;96880.13;5051054;28;20471;-76
2022/08/26 10:03:09;;;;;;;12.00;4.18;;;;;;;35.90;33.31;96886.78;5034223;28;20025;-78
2022/08/26 10:05:41;;;;;;;17.40;4.00;;;;;;;34.68;34.15;96889.78;5034373;28;20029;-76
2022/08/26 10:08:29;;;;;;;15.77;3.70;;;;;;;34.05;35.34;96889.59;5050486;28;20032;-76
2022/08/26 10:10:58;;;;;;;15.45;3.80;;;;;;;33.47;35.67;96891.00;5034126;28;20040;-76
2022/08/26 10:13:30;;;;;;;10.60;4.10;;;;;;;33.16;36.76;96905.53;5050624;28;20033;-77
2022/08/26 10:16:33;;;;;;;7.63;4.28;;;;;;;32.80;36.80;96908.75;5050788;28;20041;-76
2022/08/26 10:19:11;;;;;;;13.80;7.20;;;;;;;32.52;37.11;96893.81;5006648;28;20045;-76
2022/08/26 10:21:57;;;;;;;13.32;5.18;;;;;;;32.46;37.42;96899.50;5034032;28;20110;-77
2022/08/26 10:24:29;;;;;;;19.67;4.22;;;;;;;32.52;37.12;96904.91;5050521;28;20033;-76
2022/08/26 10:27:21;;;;;;;16.88;5.88;;;;;;;32.55;36.74;96895.25;5034016;28;20036;-76
2022/08/26 10:29:48;;;;;;;16.83;4.18;;;;;;;32.63;36.24;96884.66;5033896;28;20120;-76
2022/08/26 10:32:34;;;;;;;14.02;5.85;;;;;;;32.97;36.91;96896.59;5033584;28;20067;-77
2022/08/26 10:35:00;;;;;;;13.18;4.75;;;;;;;33.10;36.20;96895.44;5034029;28;20536;-77
2022/08/26 10:37:35;;;;;;;7.63;4.45;;;;;;;33.36;36.21;96904.97;5033687;28;20057;-76
2022/08/26 10:40:06;;;;;;;13.75;4.80;;;;;;;33.74;35.58;96897.53;5033950;28;20032;-76
2022/08/26 10:42:49;;;;;;;15.18;4.78;;;;;;;34.09;34.81;96899.91;5033486;28;20040;-77
2022/08/26 10:45:21;;;;;;;11.05;4.03;;;;;;;34.95;34.14;96891.69;5017240;28;20033;-76
2022/08/26 10:47:58;;;;;;;10.80;4.07;;;;;;;35.74;31.79;96892.56;5034014;28;20032;-77
2022/08/26 10:50:33;;;;;;;11.38;4.38;;;;;;;37.08;30.26;96889.66;5050003;28;20033;-75
2022/08/26 10:53:12;;;;;;;16.42;4.03;;;;;;;37.71;29.45;96874.22;5033411;28;20063;-75
2022/08/26 10:55:41;;;;;;;15.80;4.55;;;;;;;39.19;28.41;96889.09;5051247;28;20029;-76
2022/08/26 10:58:45;;;;;;;10.18;3.88;;;;;;;39.29;27.74;96875.03;5050017;28;20055;-76
2022/08/26 11:01:41;;;;;;;8.68;4.97;;;;;;;39.18;27.17;96853.81;5047230;28;20033;-76
2022/08/26 11:04:13;;;;;;;13.00;4.03;;;;;;;40.93;26.03;96871.59;5046516;28;20040;-77
2022/08/26 11:06:39;;;;;;;16.77;4.50;;;;;;;41.95;25.20;96860.25;5032795;28;20035;-77
2022/08/26 11:09:07;;;;;;;13.43;4.75;;;;;;;42.64;23.91;96839.41;5049727;28;20057;-76
2022/08/26 11:11:39;;;;;;;11.18;4.20;;;;;;;41.94;24.15;96848.19;5033033;28;20098;-77
2022/08/26 11:14:11;;;;;;;11.05;4.13;;;;;;;40.37;26.03;96835.13;5051114;28;20381;-77
2022/08/26 11:16:39;;;;;;;20.45;5.20;;;;;;;41.71;24.80;96851.16;5049491;28;20032;-77
2022/08/26 11:19:07;;;;;;;15.20;3.83;;;;;;;41.91;24.57;96842.34;5049643;28;20116;-76
2022/08/26 11:21:57;;;;;;;10.43;4.20;;;;;;;42.27;24.27;96834.03;5049479;28;20074;-76
2022/08/26 11:24:45;;;;;;;14.27;6.70;;;;;;;41.28;24.70;96822.47;5049548;28;20032;-78
2022/08/26 11:27:30;;;;;;;16.95;6.88;;;;;;;41.56;25.70;96829.84;5049721;28;20039;-77
2022/08/26 11:30:00;;;;;;;23.15;9.43;;;;;;;41.88;24.62;96834.53;5049456;28;20052;-77
2022/08/26 11:32:38;;;;;;;17.13;5.13;;;;;;;43.24;23.60;96830.59;5049511;28;20120;-77
2022/08/26 11:35:10;;;;;;;12.60;4.53;;;;;;;42.56;23.27;96803.50;5050781;28;20504;-77
2022/08/26 11:37:38;;;;;;;12.25;4.22;;;;;;;42.46;23.86;96829.91;5032595;28;20484;-77